NCAR-RAP Real-Time Weather Data

Output produced by METARs form (23 February 2020  00:47 UTC)
found at http://weather.rap.ucar.edu/surface/
 
KTUS 222353Z 20014G24KT 10SM SCT039 BKN046 OVC070 17/11 A3002 RMK AO2 PK WND 20032/2306 SLP142 60000 T01720111 10200 20156 53001
KTUS 222253Z 21015G28KT 10SM BKN090 18/10 A3001 RMK AO2 PK WND 20034/2236 SLP135 T01830100
KTUS 222153Z 20021G30KT 10SM SCT047 BKN080 OVC100 19/10 A3001 RMK AO2 PK WND 24030/2147 SLP134 T01940100
KTUS 222053Z 18009G16KT 10SM FEW060 SCT075 OVC090 19/12 A3002 RMK AO2 RAB1959E40 SLP139 P0000 60000 T01890117 58023
KTUS 221953Z 10004KT 10SM FEW060 BKN075 OVC120 18/12 A3005 RMK AO2 SLP150 T01780122
KTUS 221853Z VRB03KT 10SM OVC085 17/12 A3009 RMK AO2 RAB01E12 SLP163 P0000 T01670122
KTUS 221753Z 14009KT 10SM FEW070 SCT090 OVC110 16/12 A3009 RMK AO2 SLP165 60010 T01610117 10161 20133 58009
KTUS 221653Z 16009KT 10SM SCT085 OVC110 14/12 A3011 RMK AO2 SLP171 T01440122
KTUS 221553Z 13011KT 10SM BKN085 OVC110 14/11 A3012 RMK AO2 RAE23B39E48 SLP174 P0000 T01440111
KTUS 221453Z 10009KT 10SM -RA OVC080 14/11 A3012 RMK AO2 RAE00B40 SLP175 P0000 60010 T01390111 56006
KTUS 221353Z 11008KT 10SM -RA SCT050 OVC080 13/11 A3012 RMK AO2 SLP177 P0002 T01330111
KTUS 221253Z 11007KT 9SM -RA FEW042 BKN048 OVC080 13/12 A3013 RMK AO2 SLP177 P0008 T01330117
KTUS 221153Z 12005KT 6SM RA BR OVC048 13/12 A3014 RMK AO2 SLP181 P0006 60020 70020 T01330117 10156 20133 57004
KTUS 221053Z 10005KT 7SM -RA BKN060 OVC070 14/12 A3014 RMK AO2 SLP179 P0005 T01390117
KTUS 220953Z 09003KT 9SM -RA BKN070 OVC090 14/12 A3016 RMK AO2 SLP185 P0006 T01390117
KTUS 220853Z 16003KT 10SM -RA OVC075 14/12 A3015 RMK AO2 SLP184 P0003 60003 T01440117 56004
KTUS 220753Z 19004KT 10SM -RA OVC085 16/10 A3015 RMK AO2 RAE08B44 SLP182 P0000 T01560100
KTUS 220653Z 12013KT 10SM -RA OVC090 16/09 A3015 RMK AO2 RAB28 SLP183 P0000 T01560094 402060150
KTUS 220553Z 12014KT 10SM SCT065 OVC100 16/08 A3017 RMK AO2 SLP190 T01560078 10183 20156 50005
KTUS 220453Z 13015KT 10SM FEW060 OVC095 17/07 A3019 RMK AO2 SLP197 T01720067
KTUS 220353Z 11012G20KT 10SM FEW080 OVC100 18/05 A3017 RMK AO2 SLP191 T01780050
KTUS 220253Z 11011KT 10SM BKN120 18/04 A3015 RMK AO2 SLP184 T01780039 51019
KTUS 220153Z 11013G21KT 10SM CLR 18/03 A3014 RMK AO2 SLP179 T01780028
KTUS 220053Z 10012G20KT 10SM CLR 18/03 A3011 RMK AO2 PK WND 12027/0001 SLP168 T01780028
KTUS 212353Z 11017G26KT 10SM FEW110 18/03 A3009 RMK AO2 PK WND 12026/2351 SLP162 T01830028 10206 20167 55006
KTUS 212253Z 11014G26KT 10SM FEW110 19/03 A3009 RMK AO2 PK WND 12030/2207 SLP160 T01940028
KTUS 212153Z 12016G26KT 10SM CLR 20/02 A3010 RMK AO2 PK WND 12028/2114 SLP163 T02000022
KTUS 212053Z 12017G25KT 10SM CLR 19/02 A3011 RMK AO2 PK WND 11028/1955 SLP166 T01940022 58023
KTUS 211953Z 12019G29KT 10SM FEW100 19/02 A3014 RMK AO2 PK WND 12030/1859 SLP175 T01940022
KTUS 211853Z 12022G32KT 10SM CLR 18/02 A3017 RMK AO2 PK WND 12033/1841 SLP185 T01830022
KTUS 211753Z 12018G27KT 10SM FEW095 17/02 A3018 RMK AO2 PK WND 12033/1735 SLP195 60000 T01670017 10172 20150 50001
KTUS 211653Z 12014G24KT 10SM FEW100 16/02 A3020 RMK AO2 PK WND 12035/1618 RAB09E23 SLP200 P0000 T01610022
KTUS 211553Z 12017G28KT 10SM SCT070 BKN080 OVC100 15/02 A3020 RMK AO2 PK WND 12031/1540 SLP201 T01500017
KTUS 211453Z 12016G25KT 10SM FEW120 15/02 A3018 RMK AO2 PK WND 12027/1401 SLP191 T01500017 53014
KTUS 211353Z 11016G26KT 10SM SCT110 15/01 A3014 RMK AO2 PK WND 12030/1341 SLP175 T01500011
KTUS 211253Z 11015G24KT 10SM CLR 16/01 A3014 RMK AO2 PK WND 13029/1156 SLP173 T01560011
KTUS 211153Z 12018G28KT 10SM CLR 16/01 A3013 RMK AO2 PK WND 11029/1058 SLP171 T01560011 10189 20156 53000
KTUS 211053Z 12015G27KT 10SM CLR 16/01 A3012 RMK AO2 PK WND 12028/1027 SLP165 T01610011
KTUS 210953Z 12015G25KT 10SM CLR 17/01 A3014 RMK AO2 PK WND 13029/0919 SLP169 T01670011
KTUS 210853Z 11014G27KT 10SM CLR 17/02 A3013 RMK AO2 PK WND 11027/0849 SLP169 T01720017 58002
KTUS 210753Z 11012G20KT 10SM CLR 18/02 A3015 RMK AO2 SLP175 T01780017
KTUS 210653Z 13013G19KT 10SM CLR 19/02 A3015 RMK AO2 SLP175 T01890017 402720072
KTUS 210553Z 00000KT 10SM CLR 16/01 A3014 RMK AO2 SLP176 T01610006 10250 20156 50010
KTUS 210453Z 00000KT 10SM CLR 16/01 A3015 RMK AO2 SLP184 T01610011
KTUS 210353Z 24004KT 10SM CLR 17/01 A3013 RMK AO2 SLP181 T01720006
KTUS 210253Z 25004KT 10SM CLR 20/01 A3011 RMK AO2 SLP172 T02000006 53012
KTUS 210153Z 33008KT 10SM CLR 22/01 A3009 RMK AO2 SLP165 T02170006
KTUS 210053Z 34009KT 10SM CLR 23/01 A3008 RMK AO2 SLP161 T02280011